createdAt,value
2018-10-18T00:01:25.802Z,14.10
2018-10-18T00:03:54.164Z,14.10
2018-10-18T00:06:22.252Z,14.10
2018-10-18T00:08:50.515Z,14.10
2018-10-18T00:11:18.544Z,14.10
2018-10-18T00:13:46.613Z,14.10
2018-10-18T00:16:14.551Z,14.10
2018-10-18T00:18:42.520Z,14.10
2018-10-18T00:21:10.682Z,14.10
2018-10-18T00:23:38.719Z,14.10
2018-10-18T00:26:06.729Z,14.10
2018-10-18T00:28:34.847Z,14.00
2018-10-18T00:31:03.036Z,14.00
2018-10-18T00:33:31.053Z,14.00
2018-10-18T00:35:59.245Z,14.00
2018-10-18T00:38:27.400Z,14.00
2018-10-18T00:40:56.384Z,13.90
2018-10-18T00:43:24.533Z,13.90
2018-10-18T00:45:52.810Z,13.90
2018-10-18T00:48:20.965Z,13.90
2018-10-18T00:50:48.942Z,13.90
2018-10-18T00:53:16.961Z,13.90
2018-10-18T00:55:44.966Z,13.90
2018-10-18T00:58:12.900Z,13.90
2018-10-18T01:00:40.950Z,13.90
2018-10-18T01:03:08.976Z,13.90
2018-10-18T01:05:37.052Z,13.90
2018-10-18T01:08:05.281Z,13.90
2018-10-18T01:10:33.366Z,13.80
2018-10-18T01:13:01.625Z,13.80
2018-10-18T01:15:29.779Z,13.80
2018-10-18T01:17:58.053Z,13.80
2018-10-18T01:20:26.063Z,13.80
2018-10-18T01:22:54.146Z,13.70
2018-10-18T01:25:22.304Z,13.70
2018-10-18T01:27:50.564Z,13.70
2018-10-18T01:30:18.711Z,13.70
2018-10-18T01:32:46.807Z,13.60
2018-10-18T01:35:14.867Z,13.60
2018-10-18T01:37:42.904Z,13.60
2018-10-18T01:40:10.956Z,13.60
2018-10-18T01:42:38.992Z,13.60
2018-10-18T01:45:07.024Z,13.60
2018-10-18T01:47:35.126Z,13.60
2018-10-18T01:50:03.415Z,13.60
2018-10-18T01:52:31.472Z,13.60
2018-10-18T01:54:59.487Z,13.60
2018-10-18T01:57:27.504Z,13.50
2018-10-18T01:59:55.593Z,13.60
2018-10-18T02:02:23.626Z,13.60
2018-10-18T02:04:51.635Z,13.60
2018-10-18T02:07:19.708Z,13.70
2018-10-18T02:09:47.796Z,13.60
2018-10-18T02:12:15.903Z,13.60
2018-10-18T02:14:43.969Z,13.70
2018-10-18T02:17:12.054Z,13.70
2018-10-18T02:19:40.288Z,13.70
2018-10-18T02:22:08.377Z,13.70
2018-10-18T02:24:36.608Z,13.70
2018-10-18T02:27:05.032Z,13.70
2018-10-18T02:29:33.204Z,13.70
2018-10-18T02:32:02.302Z,13.80
2018-10-18T02:34:30.469Z,13.70
2018-10-18T02:36:58.490Z,13.70
2018-10-18T02:39:26.467Z,13.70
2018-10-18T02:41:54.457Z,13.70
2018-10-18T02:44:22.449Z,13.70
2018-10-18T02:46:50.628Z,13.60
2018-10-18T02:49:19.121Z,13.60
2018-10-18T02:51:47.349Z,13.60
2018-10-18T02:54:15.484Z,13.60
2018-10-18T02:56:43.578Z,13.60
2018-10-18T02:59:11.632Z,13.60
2018-10-18T03:01:39.773Z,13.50
2018-10-18T03:04:07.751Z,13.50
2018-10-18T03:06:35.851Z,13.50
2018-10-18T03:09:05.376Z,13.50
2018-10-18T03:11:33.512Z,13.50
2018-10-18T03:14:01.532Z,13.40
2018-10-18T03:16:29.604Z,13.50
2018-10-18T03:18:57.662Z,13.50
2018-10-18T03:21:25.798Z,13.50
2018-10-18T03:23:53.976Z,13.40
2018-10-18T03:26:22.199Z,13.40
2018-10-18T03:28:50.302Z,13.40
2018-10-18T03:31:18.380Z,13.40
2018-10-18T03:33:46.431Z,13.40
2018-10-18T03:36:14.956Z,13.30
2018-10-18T03:38:43.013Z,13.30
2018-10-18T03:41:11.117Z,13.30
2018-10-18T03:43:39.190Z,13.30
2018-10-18T03:46:07.288Z,13.30
2018-10-18T03:48:35.376Z,13.30
2018-10-18T03:51:03.477Z,13.30
2018-10-18T03:53:31.781Z,13.20
2018-10-18T03:56:00.426Z,13.30
2018-10-18T03:58:28.501Z,13.20
2018-10-18T04:00:56.581Z,13.30
2018-10-18T04:03:24.631Z,13.20
2018-10-18T04:05:52.796Z,13.20
2018-10-18T04:08:20.935Z,13.30
2018-10-18T04:10:49.019Z,13.20
2018-10-18T04:13:17.142Z,13.20
2018-10-18T04:15:45.526Z,13.20
2018-10-18T04:18:13.861Z,13.20
2018-10-18T04:20:41.890Z,13.20
2018-10-18T04:23:09.966Z,13.20
2018-10-18T04:25:38.115Z,13.20
2018-10-18T04:28:06.096Z,13.20
2018-10-18T04:30:35.154Z,13.20
2018-10-18T04:33:03.410Z,13.20
2018-10-18T04:35:31.798Z,13.20
2018-10-18T04:38:00.020Z,13.20
2018-10-18T04:40:28.145Z,13.20
2018-10-18T04:42:56.359Z,13.20
2018-10-18T04:45:24.592Z,13.20
2018-10-18T04:47:52.982Z,13.20
2018-10-18T04:50:21.383Z,13.20
2018-10-18T04:52:49.443Z,13.20
2018-10-18T04:55:17.452Z,13.20
2018-10-18T04:57:45.716Z,13.20
2018-10-18T05:00:13.925Z,13.20
2018-10-18T05:02:42.147Z,13.20
2018-10-18T05:05:21.397Z,13.20
2018-10-18T05:07:49.687Z,13.20
2018-10-18T05:10:18.008Z,13.20
2018-10-18T05:12:46.331Z,13.20
2018-10-18T05:15:14.509Z,13.20
2018-10-18T05:17:42.603Z,13.20
2018-10-18T05:20:11.338Z,13.20
2018-10-18T05:22:39.789Z,13.20
2018-10-18T05:25:08.028Z,13.20
2018-10-18T05:27:36.752Z,13.20
2018-10-18T05:30:05.332Z,13.20
2018-10-18T05:32:33.441Z,13.20
2018-10-18T05:35:01.984Z,13.20
2018-10-18T05:37:30.272Z,13.20
2018-10-18T05:39:58.522Z,13.20
2018-10-18T05:42:26.714Z,13.20
2018-10-18T05:44:54.829Z,13.20
2018-10-18T05:47:23.731Z,13.20
2018-10-18T05:49:52.520Z,13.20
2018-10-18T05:52:20.996Z,13.20
2018-10-18T05:54:49.216Z,13.20
2018-10-18T05:57:17.960Z,13.20
2018-10-18T05:59:46.644Z,13.20
2018-10-18T06:02:15.811Z,13.10
2018-10-18T06:04:44.342Z,13.20
2018-10-18T06:07:12.528Z,13.10
2018-10-18T06:09:40.740Z,13.10
2018-10-18T06:12:09.168Z,13.10
2018-10-18T06:14:37.789Z,13.10
2018-10-18T06:17:06.498Z,13.10
2018-10-18T06:19:35.185Z,13.10
2018-10-18T06:22:03.353Z,13.00
2018-10-18T06:24:31.415Z,13.00
2018-10-18T06:26:59.638Z,12.90
2018-10-18T06:29:27.911Z,12.90
2018-10-18T06:31:56.166Z,12.90
2018-10-18T06:34:24.464Z,13.00
2018-10-18T06:36:53.813Z,12.90
2018-10-18T06:39:23.032Z,12.90
2018-10-18T06:41:51.428Z,12.90
2018-10-18T06:44:20.324Z,13.00
2018-10-18T06:46:49.362Z,12.90
2018-10-18T06:49:17.863Z,12.90
2018-10-18T06:51:47.493Z,12.90
2018-10-18T06:54:15.597Z,12.90
2018-10-18T06:56:44.247Z,12.90
2018-10-18T06:59:12.736Z,12.90
2018-10-18T07:01:40.904Z,12.80
2018-10-18T07:04:09.550Z,12.80
2018-10-18T07:06:37.991Z,12.90
2018-10-18T07:09:09.302Z,12.80
2018-10-18T07:11:37.665Z,12.80
2018-10-18T07:14:05.662Z,12.80
2018-10-18T07:16:33.809Z,12.80
2018-10-18T07:19:01.915Z,12.80
2018-10-18T07:21:30.211Z,12.80
2018-10-18T07:23:58.492Z,12.80
2018-10-18T07:26:26.743Z,12.80
2018-10-18T07:28:55.000Z,12.80
2018-10-18T07:31:23.228Z,12.80
2018-10-18T07:33:51.789Z,12.80
2018-10-18T07:36:20.112Z,12.80
2018-10-18T07:38:48.652Z,12.70
2018-10-18T07:41:16.895Z,12.80
2018-10-18T07:43:45.402Z,12.80
2018-10-18T07:46:13.817Z,12.80
2018-10-18T07:48:42.020Z,12.80
2018-10-18T07:51:10.373Z,12.80
2018-10-18T07:53:38.794Z,12.80
2018-10-18T07:56:07.037Z,12.80
2018-10-18T07:58:35.935Z,12.80
2018-10-18T08:01:04.054Z,12.80
2018-10-18T08:03:32.372Z,12.80
2018-10-18T08:06:01.039Z,12.80
2018-10-18T08:08:29.335Z,12.80
2018-10-18T08:10:57.656Z,12.80
2018-10-18T08:13:25.744Z,12.90
2018-10-18T08:15:53.786Z,12.90
2018-10-18T08:18:22.281Z,12.90
2018-10-18T08:20:50.605Z,12.90
2018-10-18T08:23:18.737Z,12.90
2018-10-18T08:25:47.033Z,13.00
2018-10-18T08:28:15.392Z,13.00
2018-10-18T08:30:43.778Z,12.90
2018-10-18T08:33:12.154Z,13.00
2018-10-18T08:35:40.300Z,12.90
2018-10-18T08:38:08.436Z,12.90
2018-10-18T08:40:36.536Z,12.90
2018-10-18T08:43:05.016Z,13.00
2018-10-18T08:45:33.017Z,13.00
2018-10-18T08:48:01.187Z,13.10
2018-10-18T08:50:29.496Z,13.30
2018-10-18T08:52:57.479Z,13.40
2018-10-18T08:55:25.989Z,13.50
2018-10-18T08:57:54.286Z,13.70
2018-10-18T09:00:22.441Z,13.70
2018-10-18T09:02:50.754Z,13.60
2018-10-18T09:05:20.150Z,13.50
2018-10-18T09:07:48.552Z,13.50
2018-10-18T09:10:16.678Z,13.40
2018-10-18T09:12:44.980Z,13.30
2018-10-18T09:15:13.294Z,13.30
2018-10-18T09:17:42.366Z,13.20
2018-10-18T09:20:10.673Z,13.20
2018-10-18T09:22:39.048Z,13.20
2018-10-18T09:25:09.264Z,13.30
2018-10-18T09:27:37.474Z,13.30
2018-10-18T09:30:07.712Z,13.30
2018-10-18T09:32:35.786Z,13.30
2018-10-18T09:35:03.904Z,13.30
2018-10-18T09:37:32.231Z,13.30
2018-10-18T09:40:00.756Z,13.30
2018-10-18T09:45:10.920Z,13.40
2018-10-18T09:47:39.314Z,13.50
2018-10-18T09:50:08.018Z,13.60
2018-10-18T09:52:36.629Z,13.50
2018-10-18T09:55:06.034Z,13.60
2018-10-18T09:57:35.017Z,13.70
2018-10-18T10:00:13.204Z,13.80
2018-10-18T10:02:46.724Z,14.00
2018-10-18T10:05:15.396Z,14.10
2018-10-18T10:07:44.059Z,14.10
2018-10-18T10:10:12.425Z,14.20
2018-10-18T10:12:40.741Z,14.30
2018-10-18T10:15:09.140Z,14.30
2018-10-18T10:17:37.385Z,14.20
2018-10-18T10:20:06.848Z,14.10
2018-10-18T10:22:35.568Z,13.90
2018-10-18T10:25:03.952Z,13.70
2018-10-18T10:27:32.332Z,13.60
2018-10-18T10:30:00.940Z,13.50
2018-10-18T10:32:29.533Z,13.50
2018-10-18T10:34:58.030Z,13.50
2018-10-18T10:37:26.343Z,13.50
2018-10-18T10:39:54.532Z,13.50
2018-10-18T10:42:22.700Z,13.50
2018-10-18T10:44:51.142Z,13.40
2018-10-18T10:47:19.211Z,13.40
2018-10-18T10:49:47.564Z,13.50
2018-10-18T10:52:15.893Z,13.50
2018-10-18T10:54:44.400Z,13.60
2018-10-18T10:57:13.642Z,13.70
2018-10-18T10:59:41.782Z,13.80
2018-10-18T11:02:10.134Z,13.90
2018-10-18T11:04:38.771Z,14.00
2018-10-18T11:07:07.149Z,14.20
2018-10-18T11:09:35.590Z,14.20
2018-10-18T11:12:03.783Z,14.20
2018-10-18T11:14:31.987Z,14.10
2018-10-18T11:17:00.249Z,14.00
2018-10-18T11:19:28.426Z,14.00
2018-10-18T11:21:56.525Z,13.90
2018-10-18T11:24:24.661Z,14.00
2018-10-18T11:26:52.862Z,14.00
2018-10-18T11:29:20.874Z,14.10
2018-10-18T11:31:49.113Z,14.00
2018-10-18T11:34:17.783Z,14.00
2018-10-18T11:36:46.251Z,13.90
2018-10-18T11:39:14.426Z,13.80
2018-10-18T11:41:42.650Z,13.70
2018-10-18T11:44:10.991Z,13.60
2018-10-18T11:46:39.083Z,13.50
2018-10-18T11:49:07.243Z,13.40
2018-10-18T11:51:35.812Z,13.40
2018-10-18T11:54:04.151Z,13.40
2018-10-18T11:56:33.308Z,13.40
2018-10-18T11:59:02.615Z,13.40
2018-10-18T12:01:31.209Z,13.50
2018-10-18T12:03:59.946Z,13.60
2018-10-18T12:06:28.071Z,13.60
2018-10-18T12:08:56.020Z,13.70
2018-10-18T12:11:24.084Z,13.70
2018-10-18T12:13:52.357Z,13.80
2018-10-18T12:16:20.475Z,13.80
2018-10-18T12:18:48.640Z,13.80
2018-10-18T12:21:17.062Z,13.80
2018-10-18T12:23:45.224Z,13.90
2018-10-18T12:26:13.567Z,14.00
2018-10-18T12:28:41.901Z,14.00
2018-10-18T12:31:10.034Z,14.20
2018-10-18T12:33:38.834Z,14.50
2018-10-18T12:36:07.797Z,15.20
2018-10-18T12:38:35.917Z,15.90
2018-10-18T12:41:04.354Z,16.50
2018-10-18T12:43:32.539Z,17.10
2018-10-18T12:46:02.179Z,17.60
2018-10-18T12:48:30.597Z,17.90
2018-10-18T12:50:58.871Z,18.10
2018-10-18T12:53:27.383Z,18.30
2018-10-18T12:55:55.863Z,18.10
2018-10-18T12:58:25.319Z,17.60
2018-10-18T13:00:53.746Z,17.10
2018-10-18T13:03:22.162Z,16.50
2018-10-18T13:05:50.559Z,16.00
2018-10-18T13:08:19.709Z,15.60
2018-10-18T13:10:49.248Z,15.30
2018-10-18T13:13:18.612Z,14.90
2018-10-18T13:15:46.810Z,14.80
2018-10-18T13:18:15.196Z,14.70
2018-10-18T13:20:43.856Z,14.60
2018-10-18T13:23:12.408Z,14.50
2018-10-18T13:25:40.704Z,14.40
2018-10-18T13:28:09.903Z,14.30
2018-10-18T13:30:38.188Z,14.20
2018-10-18T13:33:06.649Z,14.20
2018-10-18T13:35:35.170Z,14.10
2018-10-18T13:38:03.666Z,14.00
2018-10-18T13:40:31.949Z,14.00
2018-10-18T13:43:00.321Z,14.00
2018-10-18T13:45:28.511Z,14.00
2018-10-18T13:47:57.954Z,14.00
2018-10-18T13:50:26.144Z,14.00
2018-10-18T13:52:54.846Z,14.00
2018-10-18T13:55:22.888Z,14.00
2018-10-18T13:57:51.144Z,13.90
2018-10-18T14:00:25.485Z,13.90
2018-10-18T14:02:54.753Z,13.90
2018-10-18T14:05:23.468Z,13.90
2018-10-18T14:07:53.480Z,13.90
2018-10-18T14:10:22.432Z,13.80
2018-10-18T14:12:51.848Z,13.80
2018-10-18T14:15:20.265Z,13.80
2018-10-18T14:17:48.704Z,13.80
2018-10-18T14:20:17.165Z,13.70
2018-10-18T14:22:45.338Z,13.70
2018-10-18T14:25:13.851Z,13.60
2018-10-18T14:27:42.202Z,13.60
2018-10-18T14:30:11.854Z,13.60
2018-10-18T14:32:40.543Z,13.60
2018-10-18T14:35:10.306Z,13.60
2018-10-18T14:37:38.752Z,13.60
2018-10-18T14:40:09.051Z,13.60
2018-10-18T14:42:37.987Z,13.50
2018-10-18T14:45:07.199Z,13.50
2018-10-18T14:47:35.579Z,13.50
2018-10-18T14:50:04.621Z,13.40
2018-10-18T14:52:33.357Z,13.40
2018-10-18T14:55:01.653Z,13.40
2018-10-18T14:57:30.179Z,13.30
2018-10-18T14:59:58.373Z,13.30
2018-10-18T15:02:26.781Z,13.30
2018-10-18T15:04:57.878Z,13.20
2018-10-18T15:07:26.320Z,13.20
2018-10-18T15:09:54.657Z,13.10
2018-10-18T15:12:23.175Z,13.10
2018-10-18T15:14:51.946Z,13.10
2018-10-18T15:17:20.207Z,13.10
2018-10-18T15:19:48.523Z,13.00
2018-10-18T15:22:16.717Z,13.00
2018-10-18T15:24:45.224Z,13.00
2018-10-18T15:27:13.645Z,12.90
2018-10-18T15:29:42.582Z,13.00
2018-10-18T15:32:11.078Z,12.90
2018-10-18T15:34:39.688Z,12.90
2018-10-18T15:37:08.266Z,12.80
2018-10-18T15:39:36.463Z,12.80
2018-10-18T15:42:05.484Z,12.70
2018-10-18T15:44:33.941Z,12.60
2018-10-18T15:47:03.219Z,12.60
2018-10-18T15:49:31.645Z,12.60
2018-10-18T15:52:00.599Z,12.50
2018-10-18T15:54:29.533Z,12.50
2018-10-18T15:56:57.716Z,12.50
2018-10-18T15:59:25.949Z,12.50
2018-10-18T16:01:55.192Z,12.40
2018-10-18T16:04:23.217Z,12.40
2018-10-18T16:06:51.441Z,12.30
2018-10-18T16:09:19.762Z,12.30
2018-10-18T16:11:48.828Z,12.30
2018-10-18T16:14:18.691Z,12.20
2018-10-18T16:16:47.344Z,12.20
2018-10-18T16:19:15.697Z,12.10
2018-10-18T16:21:44.059Z,12.10
2018-10-18T16:24:12.420Z,12.10
2018-10-18T16:26:41.083Z,12.10
2018-10-18T16:29:09.478Z,12.00
2018-10-18T16:31:38.133Z,12.00
2018-10-18T16:34:07.091Z,12.00
2018-10-18T16:36:35.548Z,12.00
2018-10-18T16:39:05.985Z,12.00
2018-10-18T16:41:34.445Z,12.10
2018-10-18T16:44:02.479Z,12.10
2018-10-18T16:46:30.891Z,12.00
2018-10-18T16:48:59.242Z,12.00
2018-10-18T16:51:28.066Z,12.00
2018-10-18T16:53:56.198Z,12.00
2018-10-18T16:56:25.327Z,11.80
2018-10-18T16:58:53.934Z,11.80
2018-10-18T17:01:23.360Z,11.80
2018-10-18T17:03:51.597Z,11.70
2018-10-18T17:06:19.804Z,11.70
2018-10-18T17:08:47.883Z,11.70
2018-10-18T17:11:16.324Z,11.60
2018-10-18T17:13:45.563Z,11.50
2018-10-18T17:16:21.838Z,11.40
2018-10-18T17:18:49.931Z,11.30
2018-10-18T17:21:18.552Z,11.30
2018-10-18T17:23:46.639Z,11.20
2018-10-18T17:26:15.071Z,11.10
2018-10-18T17:28:43.445Z,11.00
2018-10-18T17:31:11.906Z,11.10
2018-10-18T17:33:40.856Z,11.00
2018-10-18T17:36:09.215Z,11.00
2018-10-18T17:38:37.605Z,10.90
2018-10-18T17:41:05.837Z,11.00
2018-10-18T17:43:33.917Z,10.80
2018-10-18T17:46:02.652Z,10.70
2018-10-18T17:48:30.854Z,10.80
2018-10-18T17:51:00.584Z,10.80
2018-10-18T17:53:28.975Z,10.70
2018-10-18T17:55:57.222Z,10.70
2018-10-18T17:58:26.111Z,10.60
2018-10-18T18:00:55.331Z,10.60
2018-10-18T18:03:25.264Z,10.60
2018-10-18T18:05:53.514Z,10.60
2018-10-18T18:08:22.844Z,10.60
2018-10-18T18:10:51.673Z,10.50
2018-10-18T18:13:21.723Z,10.50
2018-10-18T18:15:50.552Z,10.50
2018-10-18T18:18:20.704Z,10.50
2018-10-18T18:20:49.441Z,10.50
2018-10-18T18:23:18.091Z,10.40
2018-10-18T18:25:46.568Z,10.40
2018-10-18T18:28:15.565Z,10.40
2018-10-18T18:30:43.805Z,10.40
2018-10-18T18:33:12.515Z,10.20
2018-10-18T18:35:40.902Z,10.20
2018-10-18T18:38:09.524Z,10.10
2018-10-18T18:40:38.137Z,10.00
2018-10-18T18:43:06.456Z,9.90
2018-10-18T18:45:35.728Z,9.90
2018-10-18T18:48:04.604Z,9.80
2018-10-18T18:50:33.985Z,9.80
2018-10-18T18:53:02.402Z,9.70
2018-10-18T18:55:30.436Z,9.70
2018-10-18T18:57:58.580Z,9.70
2018-10-18T19:00:26.977Z,9.70
2018-10-18T19:02:55.412Z,9.80
2018-10-18T19:05:29.250Z,9.70
2018-10-18T19:07:57.979Z,9.60
2018-10-18T19:10:26.983Z,9.60
2018-10-18T19:12:55.601Z,9.50
2018-10-18T19:15:23.974Z,9.50
2018-10-18T19:17:53.409Z,9.50
2018-10-18T19:20:21.783Z,9.40
2018-10-18T19:22:50.092Z,9.40
2018-10-18T19:25:23.149Z,9.30
2018-10-18T19:27:51.916Z,9.30
2018-10-18T19:30:20.086Z,9.20
2018-10-18T19:32:48.471Z,9.20
2018-10-18T19:35:17.636Z,9.10
2018-10-18T19:37:47.113Z,9.10
2018-10-18T19:42:54.391Z,9.10
2018-10-18T19:45:24.748Z,9.00
2018-10-18T19:47:53.540Z,9.00
2018-10-18T19:50:22.964Z,8.90
2018-10-18T19:52:52.381Z,8.80
2018-10-18T19:55:21.792Z,8.80
2018-10-18T19:57:50.839Z,8.70
2018-10-18T20:00:21.151Z,8.60
2018-10-18T20:02:49.850Z,8.50
2018-10-18T20:05:18.103Z,8.50
2018-10-18T20:07:46.618Z,8.50
2018-10-18T20:10:15.094Z,8.40
2018-10-18T20:12:43.704Z,8.50
2018-10-18T20:15:12.554Z,8.50
2018-10-18T20:17:43.096Z,8.40
2018-10-18T20:20:11.549Z,8.40
2018-10-18T20:22:40.120Z,8.40
2018-10-18T20:25:08.962Z,8.40
2018-10-18T20:27:38.152Z,8.40
2018-10-18T20:30:09.161Z,8.50
2018-10-18T20:32:38.101Z,8.40
2018-10-18T20:35:07.165Z,8.50
2018-10-18T20:37:35.386Z,8.40
2018-10-18T20:40:04.392Z,8.40
2018-10-18T20:42:33.627Z,8.40
2018-10-18T20:45:02.204Z,8.40
2018-10-18T20:47:30.992Z,8.40
2018-10-18T20:49:59.316Z,8.40
2018-10-18T20:52:27.818Z,8.40
2018-10-18T20:54:57.593Z,8.30
2018-10-18T20:57:26.334Z,8.30
2018-10-18T20:59:54.739Z,8.30
2018-10-18T21:02:23.035Z,8.30
2018-10-18T21:04:51.699Z,8.30
2018-10-18T21:07:20.152Z,8.30
2018-10-18T21:09:48.468Z,8.30
2018-10-18T21:12:16.905Z,8.30
2018-10-18T21:14:45.214Z,8.20
2018-10-18T21:17:13.366Z,8.30
2018-10-18T21:19:42.567Z,8.30
2018-10-18T21:22:10.764Z,8.30
2018-10-18T21:24:39.171Z,8.20
2018-10-18T21:27:07.436Z,8.20
2018-10-18T21:29:35.991Z,8.20
2018-10-18T21:32:04.220Z,8.20
2018-10-18T21:34:32.740Z,8.20
2018-10-18T21:37:01.309Z,8.20
2018-10-18T21:39:32.621Z,8.20
2018-10-18T21:42:01.764Z,8.10
2018-10-18T21:44:33.264Z,8.00
2018-10-18T21:47:02.619Z,7.90
2018-10-18T21:49:31.435Z,7.90
2018-10-18T21:51:59.700Z,7.90
2018-10-18T21:54:28.098Z,7.90
2018-10-18T21:56:56.769Z,7.90
2018-10-18T21:59:25.127Z,7.90
2018-10-18T22:01:53.281Z,7.90
2018-10-18T22:04:22.548Z,7.80
2018-10-18T22:09:29.933Z,7.80
2018-10-18T22:11:58.386Z,7.80
2018-10-18T22:14:26.585Z,7.70
2018-10-18T22:16:54.720Z,7.70
2018-10-18T22:19:22.923Z,7.70
2018-10-18T22:21:51.379Z,7.60
2018-10-18T22:24:19.523Z,7.60
2018-10-18T22:26:47.827Z,7.60
2018-10-18T22:29:16.289Z,7.60
2018-10-18T22:31:44.796Z,7.60
2018-10-18T22:34:13.091Z,7.60
2018-10-18T22:36:41.527Z,7.50
2018-10-18T22:39:10.705Z,7.50
2018-10-18T22:41:40.291Z,7.50
2018-10-18T22:44:09.031Z,7.40
2018-10-18T22:46:37.271Z,7.40
2018-10-18T22:49:05.517Z,7.40
2018-10-18T22:51:33.594Z,7.30
2018-10-18T22:54:01.700Z,7.30
2018-10-18T22:56:29.877Z,7.30
2018-10-18T22:58:58.462Z,7.20
2018-10-18T23:01:26.515Z,7.20
2018-10-18T23:03:54.599Z,7.20
2018-10-18T23:06:22.727Z,7.20
2018-10-18T23:08:51.139Z,7.20
2018-10-18T23:11:19.230Z,7.10
2018-10-18T23:13:47.417Z,7.10
2018-10-18T23:16:15.553Z,7.10
2018-10-18T23:18:43.879Z,7.10
2018-10-18T23:21:13.157Z,7.10
2018-10-18T23:23:41.270Z,7.10
2018-10-18T23:26:09.410Z,7.10
2018-10-18T23:28:37.790Z,7.10
2018-10-18T23:31:06.121Z,7.10
2018-10-18T23:33:35.339Z,7.10
2018-10-18T23:36:03.640Z,7.10
2018-10-18T23:38:32.062Z,7.10
2018-10-18T23:41:00.312Z,7.10
2018-10-18T23:43:28.539Z,7.10
2018-10-18T23:45:57.177Z,7.10
2018-10-18T23:48:26.548Z,7.00
2018-10-18T23:50:54.870Z,7.00
2018-10-18T23:53:23.033Z,7.00
2018-10-18T23:55:51.419Z,7.00
2018-10-18T23:58:19.982Z,7.00
